Time,TemperatureF,DewpointF,PressureIn,WindDirection,WindDirectionDegrees,WindSpeedMPH,WindSpeedGustMPH,Humidity,HourlyPrecipIn,Conditions,Clouds,dailyrainin,SoftwareType,DateUTC
2013-01-24 00:02:00,56.0,51.0,30.22,South,188,6.0,9.0,84,0.00,,,0.00,,2013-01-24 06:02:00,
2013-01-24 00:12:00,56.0,51.0,30.22,South,188,6.0,9.0,84,0.00,,,0.00,,2013-01-24 06:12:00,
2013-01-24 00:22:00,56.0,52.0,30.22,SSW,192,5.0,10.0,85,0.00,,,0.00,,2013-01-24 06:22:00,
2013-01-24 00:32:00,56.0,52.0,30.22,SSW,197,6.0,10.0,85,0.00,,,0.00,,2013-01-24 06:32:00,
2013-01-24 00:42:00,56.0,52.0,30.22,SSW,197,6.0,10.0,85,0.00,,,0.00,,2013-01-24 06:42:00,
2013-01-24 00:52:00,55.0,51.0,30.22,SSW,195,5.0,7.0,86,0.00,,,0.00,,2013-01-24 06:52:00,
2013-01-24 01:02:00,55.0,51.0,30.22,SSW,196,5.0,7.0,86,0.00,,,0.00,,2013-01-24 07:02:00,
2013-01-24 01:12:00,55.0,51.0,30.22,SSW,196,5.0,7.0,86,0.00,,,0.00,,2013-01-24 07:12:00,
2013-01-24 01:23:00,55.0,52.0,30.23,South,190,4.0,7.0,88,0.00,,,0.00,,2013-01-24 07:23:00,
2013-01-24 01:33:00,55.0,52.0,30.23,South,190,4.0,7.0,88,0.00,,,0.00,,2013-01-24 07:33:00,
2013-01-24 01:42:00,55.0,52.0,30.23,South,190,4.0,7.0,88,0.00,,,0.00,,2013-01-24 07:42:00,
2013-01-24 01:53:00,54.0,51.0,30.23,South,188,4.0,7.0,89,0.00,,,0.00,,2013-01-24 07:53:00,
2013-01-24 02:02:00,54.0,51.0,30.22,South,178,4.0,7.0,89,0.00,,,0.00,,2013-01-24 08:02:00,
2013-01-24 02:12:00,54.0,51.0,30.22,South,178,4.0,7.0,89,0.00,,,0.00,,2013-01-24 08:12:00,
2013-01-24 02:22:00,54.0,51.0,30.22,South,186,4.0,7.0,89,0.00,,,0.00,,2013-01-24 08:22:00,
2013-01-24 02:33:00,54.0,51.0,30.22,South,186,4.0,7.0,89,0.00,,,0.00,,2013-01-24 08:33:00,
2013-01-24 02:42:00,54.0,51.0,30.22,South,186,4.0,7.0,89,0.00,,,0.00,,2013-01-24 08:42:00,
2013-01-24 02:53:00,54.0,51.0,30.23,South,175,3.0,6.0,90,0.00,,,0.00,,2013-01-24 08:53:00,
2013-01-24 03:03:00,54.0,51.0,30.23,South,185,3.0,6.0,90,0.00,,,0.00,,2013-01-24 09:03:00,
2013-01-24 03:13:00,54.0,51.0,30.23,South,185,3.0,6.0,90,0.00,,,0.00,,2013-01-24 09:13:00,
2013-01-24 03:23:00,54.0,51.0,30.23,South,177,4.0,7.0,91,0.00,,,0.00,,2013-01-24 09:23:00,
2013-01-24 03:33:00,53.0,50.0,30.23,SSW,198,4.0,7.0,91,0.00,,,0.00,,2013-01-24 09:33:00,
2013-01-24 03:43:00,53.0,50.0,30.23,SSW,198,4.0,7.0,91,0.00,,,0.00,,2013-01-24 09:43:00,
2013-01-24 03:53:00,53.0,50.0,30.23,South,188,3.0,6.0,91,0.00,,,0.00,,2013-01-24 09:53:00,
2013-01-24 04:02:00,53.0,51.0,30.23,SSW,205,3.0,6.0,92,0.00,,,0.00,,2013-01-24 10:02:00,
2013-01-24 04:12:00,53.0,51.0,30.23,SSW,205,3.0,6.0,92,0.00,,,0.00,,2013-01-24 10:12:00,
2013-01-24 04:23:00,53.0,51.0,30.24,SW,216,1.0,4.0,92,0.00,,,0.00,,2013-01-24 10:23:00,
2013-01-24 04:33:00,53.0,51.0,30.24,SSW,211,0.0,3.0,92,0.00,,,0.00,,2013-01-24 10:33:00,
2013-01-24 04:43:00,53.0,51.0,30.24,SSW,211,0.0,3.0,92,0.00,,,0.00,,2013-01-24 10:43:00,
2013-01-24 04:53:00,52.0,50.0,30.23,South,184,2.0,4.0,92,0.00,,,0.00,,2013-01-24 10:53:00,
2013-01-24 05:02:00,52.0,50.0,30.23,South,179,2.0,4.0,93,0.00,,,0.00,,2013-01-24 11:02:00,
2013-01-24 05:12:00,52.0,50.0,30.23,South,179,2.0,4.0,93,0.00,,,0.00,,2013-01-24 11:12:00,
2013-01-24 05:23:00,52.0,50.0,30.22,South,182,5.0,8.0,94,0.00,,,0.00,,2013-01-24 11:23:00,
2013-01-24 05:33:00,53.0,51.0,30.23,South,191,4.0,7.0,93,0.00,,,0.00,,2013-01-24 11:33:00,
2013-01-24 05:43:00,53.0,51.0,30.23,South,191,4.0,7.0,93,0.00,,,0.00,,2013-01-24 11:43:00,
2013-01-24 05:53:00,53.0,51.0,30.24,South,180,4.0,8.0,93,0.00,,,0.00,,2013-01-24 11:53:00,
2013-01-24 06:03:00,53.0,51.0,30.23,South,184,5.0,8.0,93,0.00,,,0.00,,2013-01-24 12:03:00,
2013-01-24 06:12:00,53.0,51.0,30.23,South,184,5.0,8.0,93,0.00,,,0.00,,2013-01-24 12:12:00,
2013-01-24 06:22:00,53.0,51.0,30.24,South,188,5.0,7.0,93,0.00,,,0.00,,2013-01-24 12:22:00,
2013-01-24 06:33:00,53.0,51.0,30.24,South,186,5.0,8.0,93,0.00,,,0.00,,2013-01-24 12:33:00,
2013-01-24 06:43:00,53.0,51.0,30.24,South,186,5.0,8.0,93,0.00,,,0.00,,2013-01-24 12:43:00,
2013-01-24 06:53:00,53.0,51.0,30.24,South,178,4.0,7.0,94,0.00,,,0.00,,2013-01-24 12:53:00,
2013-01-24 07:03:00,53.0,51.0,30.24,SSW,199,4.0,9.0,94,0.00,,,0.00,,2013-01-24 13:03:00,
2013-01-24 07:13:00,53.0,51.0,30.24,SSW,199,4.0,9.0,94,0.00,,,0.00,,2013-01-24 13:13:00,
2013-01-24 07:23:00,53.0,51.0,30.24,SSW,194,4.0,7.0,94,0.00,,,0.00,,2013-01-24 13:23:00,
2013-01-24 07:33:00,53.0,51.0,30.24,SSW,194,4.0,7.0,94,0.00,,,0.00,,2013-01-24 13:33:00,
2013-01-24 07:42:00,53.0,51.0,30.24,SSW,194,4.0,7.0,94,0.00,,,0.00,,2013-01-24 13:42:00,
2013-01-24 07:53:00,53.0,51.0,30.24,SSW,194,4.0,7.0,94,0.00,,,0.00,,2013-01-24 13:53:00,
2013-01-24 08:02:00,53.0,51.0,30.25,South,190,3.0,6.0,94,0.00,,,0.00,,2013-01-24 14:02:00,
2013-01-24 08:12:00,53.0,51.0,30.25,South,190,3.0,6.0,94,0.00,,,0.00,,2013-01-24 14:12:00,
2013-01-24 08:23:00,53.0,51.0,30.25,SSW,192,4.0,7.0,94,0.00,,,0.00,,2013-01-24 14:23:00,
2013-01-24 08:33:00,55.0,53.0,30.25,SSW,192,4.0,7.0,94,0.00,,,0.00,,2013-01-24 14:33:00,
2013-01-24 08:43:00,55.0,53.0,30.25,SSW,192,4.0,7.0,94,0.00,,,0.00,,2013-01-24 14:43:00,
2013-01-24 08:54:00,55.0,53.0,30.27,North,9,5.0,8.0,93,0.00,,,0.00,,2013-01-24 14:54:00,
2013-01-24 09:03:00,55.0,53.0,30.28,North,355,5.0,7.0,92,0.00,,,0.00,,2013-01-24 15:03:00,
2013-01-24 09:12:00,55.0,53.0,30.28,North,355,5.0,7.0,92,0.00,,,0.00,,2013-01-24 15:12:00,
2013-01-24 09:23:00,55.0,53.0,30.29,NNE,25,6.0,8.0,93,0.00,,,0.00,,2013-01-24 15:23:00,
2013-01-24 09:33:00,55.0,53.0,30.29,NNE,25,6.0,8.0,93,0.00,,,0.00,,2013-01-24 15:33:00,
2013-01-24 09:43:00,55.0,53.0,30.29,NNE,22,6.0,9.0,93,0.00,,,0.00,,2013-01-24 15:43:00,
2013-01-24 09:53:00,55.0,53.0,30.29,NNE,22,6.0,9.0,93,0.00,,,0.00,,2013-01-24 15:53:00,
2013-01-24 10:03:00,55.0,53.0,30.30,NNE,21,5.0,7.0,92,0.00,,,0.00,,2013-01-24 16:03:00,
2013-01-24 10:12:00,55.0,53.0,30.30,NNE,21,5.0,7.0,92,0.00,,,0.00,,2013-01-24 16:12:00,
2013-01-24 10:23:00,55.0,53.0,30.30,NNE,17,4.0,7.0,92,0.00,,,0.00,,2013-01-24 16:23:00,
2013-01-24 10:33:00,55.0,53.0,30.29,NE,35,3.0,4.0,92,0.00,,,0.00,,2013-01-24 16:33:00,
2013-01-24 10:42:00,55.0,53.0,30.29,NE,35,3.0,4.0,92,0.00,,,0.00,,2013-01-24 16:42:00,
2013-01-24 11:02:00,55.0,53.0,30.29,NE,56,4.0,6.0,92,0.00,,,0.00,,2013-01-24 17:02:00,
2013-01-24 11:12:00,55.0,53.0,30.29,NE,56,4.0,6.0,92,0.00,,,0.00,,2013-01-24 17:12:00,
2013-01-24 11:22:00,56.0,54.0,30.29,NE,55,2.0,4.0,92,0.00,,,0.00,,2013-01-24 17:22:00,
2013-01-24 11:32:00,56.0,53.0,30.29,ENE,60,1.0,3.0,91,0.00,,,0.00,,2013-01-24 17:32:00,
2013-01-24 11:42:00,56.0,53.0,30.29,ENE,60,1.0,3.0,91,0.00,,,0.00,,2013-01-24 17:42:00,
2013-01-24 11:52:00,56.0,53.0,30.28,NE,36,1.0,3.0,91,0.00,,,0.00,,2013-01-24 17:52:00,
2013-01-24 12:02:00,56.0,53.0,30.27,North,360,4.0,7.0,91,0.00,,,0.00,,2013-01-24 18:02:00,
2013-01-24 12:12:00,55.0,52.0,30.27,NNE,24,5.0,9.0,90,0.00,,,0.00,,2013-01-24 18:12:00,
2013-01-24 12:22:00,55.0,52.0,30.27,NNE,24,5.0,9.0,90,0.00,,,0.00,,2013-01-24 18:22:00,
2013-01-24 12:32:00,55.0,52.0,30.26,NNE,22,4.0,8.0,90,0.00,,,0.00,,2013-01-24 18:32:00,
2013-01-24 12:42:00,55.0,52.0,30.26,NNE,22,4.0,8.0,90,0.00,,,0.00,,2013-01-24 18:42:00,
2013-01-24 12:53:00,55.0,52.0,30.26,NNE,22,4.0,8.0,90,0.00,,,0.00,,2013-01-24 18:53:00,
2013-01-24 13:02:00,54.0,51.0,30.25,North,11,5.0,8.0,88,0.00,,,0.00,,2013-01-24 19:02:00,
2013-01-24 13:12:00,54.0,51.0,30.25,North,11,5.0,8.0,88,0.00,,,0.00,,2013-01-24 19:12:00,
2013-01-24 13:22:00,54.0,50.0,30.24,North,360,7.0,11.0,86,0.00,,,0.00,,2013-01-24 19:22:00,
2013-01-24 13:33:00,53.0,49.0,30.24,NNE,12,7.0,11.0,86,0.00,,,0.00,,2013-01-24 19:33:00,
2013-01-24 13:42:00,53.0,49.0,30.24,NNE,12,7.0,11.0,86,0.00,,,0.00,,2013-01-24 19:42:00,
2013-01-24 13:53:00,53.0,49.0,30.24,North,360,7.0,11.0,86,0.00,,,0.00,,2013-01-24 19:53:00,
2013-01-24 14:02:00,53.0,49.0,30.23,North,5,6.0,9.0,87,0.00,,,0.00,,2013-01-24 20:02:00,
2013-01-24 14:11:00,53.0,49.0,30.23,North,5,6.0,9.0,87,0.00,,,0.00,,2013-01-24 20:11:00,
2013-01-24 14:22:00,53.0,49.0,30.23,North,5,6.0,9.0,87,0.00,,,0.00,,2013-01-24 20:22:00,
2013-01-24 14:32:00,53.0,50.0,30.22,North,11,5.0,10.0,88,0.00,,,0.00,,2013-01-24 20:32:00,
2013-01-24 14:42:00,53.0,50.0,30.22,North,11,5.0,10.0,88,0.00,,,0.00,,2013-01-24 20:42:00,
2013-01-24 14:52:00,52.0,49.0,30.21,NNE,13,4.0,9.0,89,0.00,,,0.00,,2013-01-24 20:52:00,
2013-01-24 15:02:00,52.0,49.0,30.21,NNE,13,4.0,9.0,89,0.00,,,0.00,,2013-01-24 21:02:00,
2013-01-24 15:12:00,52.0,49.0,30.21,NNE,13,4.0,9.0,89,0.00,,,0.00,,2013-01-24 21:12:00,
2013-01-24 15:22:00,52.0,49.0,30.20,North,10,7.0,9.0,90,0.00,,,0.00,,2013-01-24 21:22:00,
2013-01-24 15:33:00,52.0,49.0,30.20,NNE,13,7.0,10.0,90,0.00,,,0.00,,2013-01-24 21:33:00,
2013-01-24 15:43:00,52.0,49.0,30.20,NNE,13,7.0,10.0,90,0.00,,,0.00,,2013-01-24 21:43:00,
2013-01-24 15:53:00,52.0,49.0,30.21,NNE,19,7.0,11.0,91,0.00,,,0.00,,2013-01-24 21:53:00,
2013-01-24 16:02:00,51.0,48.0,30.22,NNE,15,8.0,11.0,91,0.00,,,0.00,,2013-01-24 22:02:00,
2013-01-24 16:12:00,51.0,48.0,30.22,NNE,15,8.0,11.0,91,0.00,,,0.00,,2013-01-24 22:12:00,
2013-01-24 16:22:00,51.0,48.0,30.22,NNW,346,7.0,11.0,90,0.00,,,0.00,,2013-01-24 22:22:00,
2013-01-24 16:32:00,51.0,48.0,30.22,North,360,8.0,10.0,89,0.00,,,0.00,,2013-01-24 22:32:00,
2013-01-24 16:42:00,51.0,48.0,30.22,North,360,8.0,10.0,89,0.00,,,0.00,,2013-01-24 22:42:00,
2013-01-24 16:53:00,51.0,48.0,30.23,North,5,7.0,12.0,90,0.00,,,0.00,,2013-01-24 22:53:00,
2013-01-24 17:02:00,51.0,48.0,30.22,NNE,13,7.0,10.0,91,0.00,,,0.00,,2013-01-24 23:02:00,
2013-01-24 17:12:00,51.0,48.0,30.22,NNE,13,7.0,10.0,91,0.00,,,0.00,,2013-01-24 23:12:00,
2013-01-24 17:22:00,50.0,47.0,30.22,North,9,5.0,8.0,91,0.00,,,0.00,,2013-01-24 23:22:00,
2013-01-24 17:32:00,49.0,47.0,30.22,North,355,6.0,10.0,93,0.00,,,0.00,,2013-01-24 23:32:00,
2013-01-24 17:42:00,49.0,47.0,30.22,North,355,6.0,10.0,93,0.00,,,0.00,,2013-01-24 23:42:00,
2013-01-24 17:52:00,49.0,47.0,30.22,North,355,6.0,10.0,93,0.00,,,0.00,,2013-01-24 23:52:00,
2013-01-24 18:02:00,49.0,47.0,30.22,North,355,6.0,10.0,93,0.00,,,0.00,,2013-01-25 00:02:00,
2013-01-24 18:12:00,49.0,47.0,30.22,North,355,6.0,10.0,93,0.00,,,0.00,,2013-01-25 00:12:00,
2013-01-24 18:22:00,49.0,47.0,30.22,NE,36,4.0,6.0,93,0.01,,,0.01,,2013-01-25 00:22:00,
2013-01-24 18:32:00,49.0,47.0,30.21,North,10,4.0,6.0,93,0.01,,,0.01,,2013-01-25 00:32:00,
2013-01-24 18:42:00,49.0,47.0,30.21,North,10,4.0,6.0,93,0.01,,,0.01,,2013-01-25 00:42:00,
2013-01-24 18:52:00,49.0,47.0,30.21,NNE,14,3.0,6.0,92,0.01,,,0.01,,2013-01-25 00:52:00,
2013-01-24 19:01:00,49.0,47.0,30.21,North,360,2.0,4.0,92,0.00,,,0.01,,2013-01-25 01:01:00,
2013-01-24 19:12:00,49.0,47.0,30.21,North,360,2.0,4.0,92,0.00,,,0.01,,2013-01-25 01:12:00,
2013-01-24 19:22:00,49.0,47.0,30.20,NNE,26,0.0,3.0,92,0.00,,,0.01,,2013-01-25 01:22:00,
2013-01-24 19:32:00,49.0,47.0,30.20,NNE,26,1.0,2.0,92,0.00,,,0.01,,2013-01-25 01:32:00,
2013-01-24 19:42:00,49.0,47.0,30.20,NNE,26,1.0,2.0,92,0.00,,,0.01,,2013-01-25 01:42:00,
2013-01-24 19:52:00,49.0,46.0,30.19,NE,56,1.0,3.0,90,0.00,,,0.01,,2013-01-25 01:52:00,
2013-01-24 20:02:00,49.0,46.0,30.20,NNE,27,0.0,3.0,89,0.00,,,0.01,,2013-01-25 02:02:00,
2013-01-24 20:11:00,49.0,46.0,30.20,NNE,27,0.0,3.0,89,0.00,,,0.01,,2013-01-25 02:11:00,
2013-01-24 20:22:00,49.0,46.0,30.20,NNE,27,0.0,3.0,89,0.00,,,0.01,,2013-01-25 02:22:00,
2013-01-24 20:32:00,49.0,46.0,30.19,NNE,22,1.0,3.0,89,0.00,,,0.01,,2013-01-25 02:32:00,
2013-01-24 20:42:00,49.0,46.0,30.19,NNE,22,1.0,3.0,89,0.00,,,0.01,,2013-01-25 02:42:00,
2013-01-24 20:53:00,50.0,47.0,30.19,NNE,17,0.0,2.0,89,0.00,,,0.01,,2013-01-25 02:53:00,
2013-01-24 21:02:00,50.0,47.0,30.18,NNE,18,1.0,3.0,89,0.00,,,0.01,,2013-01-25 03:02:00,
2013-01-24 21:12:00,50.0,47.0,30.17,NE,34,1.0,4.0,88,0.00,,,0.01,,2013-01-25 03:12:00,
2013-01-24 21:22:00,50.0,47.0,30.17,NE,34,1.0,4.0,88,0.00,,,0.01,,2013-01-25 03:22:00,
2013-01-24 21:33:00,50.0,46.0,30.17,NE,42,2.0,4.0,86,0.00,,,0.01,,2013-01-25 03:33:00,
2013-01-24 21:42:00,50.0,46.0,30.17,NE,42,2.0,4.0,86,0.00,,,0.01,,2013-01-25 03:42:00,
2013-01-24 21:52:00,50.0,46.0,30.17,NNE,20,2.0,4.0,86,0.00,,,0.01,,2013-01-25 03:52:00,
2013-01-24 22:02:00,50.0,46.0,30.17,NNE,20,2.0,4.0,85,0.00,,,0.01,,2013-01-25 04:02:00,
2013-01-24 22:12:00,50.0,46.0,30.17,NNE,20,2.0,4.0,85,0.00,,,0.01,,2013-01-25 04:12:00,
2013-01-24 22:22:00,50.0,46.0,30.17,NNE,18,1.0,4.0,85,0.00,,,0.01,,2013-01-25 04:22:00,
2013-01-24 22:32:00,51.0,47.0,30.17,NNE,18,1.0,3.0,86,0.00,,,0.01,,2013-01-25 04:32:00,
2013-01-24 22:41:00,51.0,47.0,30.17,NNE,18,1.0,3.0,86,0.00,,,0.01,,2013-01-25 04:41:00,
2013-01-24 22:52:00,51.0,47.0,30.17,NNE,18,0.0,2.0,86,0.00,,,0.01,,2013-01-25 04:52:00,
2013-01-24 23:03:00,51.0,47.0,30.17,West,278,0.0,2.0,87,0.00,,,0.01,,2013-01-25 05:03:00,
2013-01-24 23:12:00,51.0,47.0,30.17,West,278,0.0,2.0,87,0.00,,,0.01,,2013-01-25 05:12:00,
2013-01-24 23:22:00,51.0,48.0,30.17,WSW,238,0.0,2.0,88,0.00,,,0.01,,2013-01-25 05:22:00,
2013-01-24 23:32:00,51.0,48.0,30.17,WSW,238,0.0,2.0,88,0.00,,,0.01,,2013-01-25 05:32:00,
2013-01-24 23:43:00,51.0,48.0,30.17,WSW,238,0.0,2.0,88,0.00,,,0.01,,2013-01-25 05:43:00,
2013-01-24 23:52:00,51.0,48.0,30.17,WSW,248,1.0,4.0,88,0.00,,,0.01,,2013-01-25 05:52:00,